Time;durP1;ratioP1;P1;durP2;ratioP2;P2;SDS_P1;SDS_P2;PMS_P1;PMS_P2;Temp;Humidity;BMP_temperature;BMP_pressure;BME280_temperature;BME280_humidity;BME280_pressure;Samples;Min_cycle;Max_cycle;Signal;HPM_P1;HPM_P2
2022/03/29 00:02:21;;;;;;;8.32;3.75;;;10.20;70.40;;;;;;5062653;28;20076;-74
2022/03/29 00:04:47;;;;;;;8.48;3.90;;;10.20;70.50;;;;;;5068621;28;20040;-75
2022/03/29 00:07:14;;;;;;;8.18;4.38;;;10.10;70.60;;;;;;5062688;28;20490;-75
2022/03/29 00:09:42;;;;;;;8.68;3.60;;;10.10;70.60;;;;;;5065382;28;20064;-75
2022/03/29 00:12:09;;;;;;;8.65;3.50;;;10.20;70.60;;;;;;5068624;28;20119;-73
2022/03/29 00:14:38;;;;;;;7.75;4.10;;;10.10;70.60;;;;;;5066739;28;20490;-74
2022/03/29 00:17:05;;;;;;;7.30;3.58;;;10.10;70.80;;;;;;5063055;28;20501;-75
2022/03/29 00:19:38;;;;;;;7.22;3.65;;;10.10;70.90;;;;;;5065497;28;20044;-73
2022/03/29 00:22:11;;;;;;;7.65;4.15;;;10.00;71.00;;;;;;5062788;28;20043;-74
2022/03/29 00:24:38;;;;;;;6.95;3.60;;;10.10;70.90;;;;;;5066067;28;20114;-77
2022/03/29 00:27:05;;;;;;;8.45;3.70;;;10.00;70.80;;;;;;5067332;28;20043;-76
2022/03/29 00:29:33;;;;;;;9.25;4.03;;;10.00;70.80;;;;;;5068881;28;20552;-73
2022/03/29 00:32:01;;;;;;;7.50;3.38;;;10.00;70.90;;;;;;5061232;28;20049;-74
2022/03/29 00:34:28;;;;;;;6.68;2.88;;;10.00;70.80;;;;;;5062778;28;20481;-72
2022/03/29 00:36:55;;;;;;;7.97;3.35;;;10.00;70.70;;;;;;5062562;28;20179;-75
2022/03/29 00:39:23;;;;;;;12.52;3.72;;;10.00;70.60;;;;;;5063553;28;20044;-72
2022/03/29 00:41:50;;;;;;;7.15;3.47;;;10.00;70.70;;;;;;5065763;28;20048;-76
2022/03/29 00:44:17;;;;;;;7.88;3.78;;;9.90;70.70;;;;;;5065860;28;20048;-74
2022/03/29 00:46:47;;;;;;;9.05;3.80;;;9.90;70.70;;;;;;5065140;28;20036;-71
2022/03/29 00:49:15;;;;;;;5.67;2.60;;;9.90;70.90;;;;;;5062790;28;20041;-75
2022/03/29 00:51:42;;;;;;;8.48;3.47;;;9.90;71.00;;;;;;5066877;28;20090;-72
2022/03/29 00:54:09;;;;;;;9.55;3.50;;;9.90;71.10;;;;;;5068782;28;20055;-76
2022/03/29 00:56:36;;;;;;;9.30;4.35;;;9.90;71.00;;;;;;5063588;28;20040;-73
2022/03/29 00:59:03;;;;;;;8.30;3.65;;;9.90;71.10;;;;;;5066125;28;20032;-73
2022/03/29 01:01:30;;;;;;;9.98;3.78;;;9.80;71.20;;;;;;5060375;28;20395;-74
2022/03/29 01:03:57;;;;;;;9.00;3.63;;;9.80;71.30;;;;;;5060507;28;20032;-75
2022/03/29 01:06:26;;;;;;;7.47;3.17;;;9.80;71.20;;;;;;5063709;28;20058;-75
2022/03/29 01:08:53;;;;;;;7.93;4.05;;;9.80;71.30;;;;;;5065974;28;20480;-75
2022/03/29 01:11:20;;;;;;;8.40;3.75;;;9.80;71.30;;;;;;5062171;28;20062;-76
2022/03/29 01:13:47;;;;;;;8.85;3.47;;;9.80;71.40;;;;;;5066258;28;20105;-76
2022/03/29 01:18:59;;;;;;;6.78;3.00;;;9.70;71.90;;;;;;5066366;28;20045;-74
2022/03/29 01:21:33;;;;;;;6.20;2.85;;;9.70;72.10;;;;;;5068039;28;20045;-75
2022/03/29 01:24:02;;;;;;;6.93;3.15;;;9.70;72.10;;;;;;5067122;28;20044;-73
2022/03/29 01:26:30;;;;;;;6.10;2.95;;;9.70;72.10;;;;;;5065416;28;20044;-74
2022/03/29 01:28:58;;;;;;;6.53;3.45;;;9.60;72.10;;;;;;5066183;28;20409;-74
2022/03/29 01:31:26;;;;;;;5.38;2.60;;;9.70;72.00;;;;;;5064727;28;20044;-75
2022/03/29 01:33:53;;;;;;;7.47;3.13;;;9.60;72.10;;;;;;5066010;28;20123;-74
2022/03/29 01:36:20;;;;;;;8.02;4.13;;;9.60;72.00;;;;;;5067642;28;20067;-73
2022/03/29 01:38:52;;;;;;;7.18;3.20;;;9.60;72.00;;;;;;5059607;28;21139;-74
2022/03/29 01:41:20;;;;;;;9.75;3.35;;;9.60;71.90;;;;;;5068689;28;20425;-72
2022/03/29 01:43:47;;;;;;;8.60;3.58;;;9.60;71.80;;;;;;5067569;28;20055;-74
2022/03/29 01:46:14;;;;;;;11.70;4.20;;;9.60;71.80;;;;;;5069226;28;20143;-71
2022/03/29 01:48:40;;;;;;;10.07;3.70;;;9.50;71.90;;;;;;5068570;28;20052;-72
2022/03/29 01:51:09;;;;;;;7.75;3.35;;;9.50;72.10;;;;;;5069650;28;20045;-71
2022/03/29 01:53:36;;;;;;;10.68;3.47;;;9.40;72.20;;;;;;5064644;28;20049;-76
2022/03/29 01:56:03;;;;;;;7.40;3.50;;;9.40;72.10;;;;;;5068879;28;20521;-75
2022/03/29 01:58:31;;;;;;;5.95;2.95;;;9.40;72.10;;;;;;5067044;28;20114;-72
2022/03/29 02:00:59;;;;;;;7.18;3.25;;;9.40;72.20;;;;;;5060397;28;20055;-73
2022/03/29 02:03:26;;;;;;;8.25;3.65;;;9.40;72.30;;;;;;5064343;28;20052;-73
2022/03/29 02:05:53;;;;;;;7.95;3.42;;;9.40;72.40;;;;;;5067930;28;20508;-72
2022/03/29 02:08:20;;;;;;;7.28;3.03;;;9.30;72.40;;;;;;5067626;28;20044;-71
2022/03/29 02:10:47;;;;;;;6.55;3.13;;;9.30;72.40;;;;;;5067536;28;20063;-77
2022/03/29 02:13:14;;;;;;;6.82;2.92;;;9.30;72.40;;;;;;5068504;28;20137;-73
2022/03/29 02:15:43;;;;;;;6.65;3.22;;;9.30;72.40;;;;;;5066918;28;20048;-73
2022/03/29 02:18:10;;;;;;;6.57;2.83;;;9.20;72.50;;;;;;5066883;28;20045;-72
2022/03/29 02:20:37;;;;;;;7.80;3.28;;;9.20;72.50;;;;;;5067583;28;20516;-75
2022/03/29 02:23:06;;;;;;;7.95;3.60;;;9.20;72.60;;;;;;5049391;28;20080;-74
2022/03/29 02:25:33;;;;;;;9.40;3.33;;;9.20;72.60;;;;;;5066716;28;20045;-73
2022/03/29 02:28:00;;;;;;;8.85;3.60;;;9.20;72.60;;;;;;5044269;28;20041;-76
2022/03/29 02:30:28;;;;;;;8.40;3.75;;;9.20;72.60;;;;;;5059581;28;20044;-73
2022/03/29 02:32:56;;;;;;;13.10;4.00;;;9.10;72.70;;;;;;5061894;28;20566;-73
2022/03/29 02:35:23;;;;;;;8.65;3.88;;;9.10;72.70;;;;;;5066522;28;20075;-74
2022/03/29 02:37:51;;;;;;;7.40;3.40;;;9.10;72.80;;;;;;5065715;28;20062;-73
2022/03/29 02:40:18;;;;;;;9.52;3.45;;;9.00;72.80;;;;;;5068176;28;20109;-73
2022/03/29 02:42:46;;;;;;;9.82;3.92;;;9.00;72.90;;;;;;5065561;28;20775;-73
2022/03/29 02:45:15;;;;;;;8.05;3.80;;;9.00;73.00;;;;;;5069467;28;20585;-76
2022/03/29 02:47:43;;;;;;;7.82;3.53;;;9.00;73.00;;;;;;5071513;28;20574;-74
2022/03/29 02:50:12;;;;;;;7.07;3.08;;;9.00;72.90;;;;;;5071926;28;20049;-75
2022/03/29 02:52:46;;;;;;;13.38;3.75;;;8.90;73.00;;;;;;5069183;28;20033;-75
2022/03/29 02:55:13;;;;;;;5.53;3.08;;;8.90;72.90;;;;;;5070969;28;20033;-74
2022/03/29 02:57:40;;;;;;;11.65;3.55;;;8.90;73.00;;;;;;5049637;28;20406;-73
2022/03/29 03:00:09;;;;;;;9.63;3.92;;;8.90;73.00;;;;;;5065870;28;20040;-73
2022/03/29 03:02:37;;;;;;;6.47;3.15;;;8.90;73.10;;;;;;5067732;28;20123;-72
2022/03/29 03:05:04;;;;;;;6.82;2.85;;;8.80;73.20;;;;;;5070753;28;20040;-73
2022/03/29 03:07:33;;;;;;;7.20;2.83;;;8.80;73.30;;;;;;5069812;28;20124;-74
2022/03/29 03:10:00;;;;;;;6.82;2.90;;;8.80;73.30;;;;;;5072091;28;20047;-72
2022/03/29 03:12:27;;;;;;;7.18;2.55;;;8.80;73.40;;;;;;5069956;28;20044;-73
2022/03/29 03:14:53;;;;;;;6.05;3.05;;;8.70;73.60;;;;;;5072746;28;20037;-73
2022/03/29 03:17:20;;;;;;;6.68;2.58;;;8.70;73.60;;;;;;5071206;28;20132;-71
2022/03/29 03:19:47;;;;;;;6.70;2.85;;;8.70;73.50;;;;;;5071821;28;20044;-73
2022/03/29 03:22:14;;;;;;;5.57;2.25;;;8.70;73.50;;;;;;5072835;28;20071;-72
2022/03/29 03:24:43;;;;;;;6.75;3.03;;;8.70;73.70;;;;;;5072048;28;20109;-72
2022/03/29 03:27:09;;;;;;;7.07;2.95;;;8.70;73.60;;;;;;5067074;28;20502;-73
2022/03/29 03:29:36;;;;;;;5.97;3.10;;;8.70;73.80;;;;;;5069834;28;20056;-73
2022/03/29 03:32:04;;;;;;;7.03;2.55;;;8.70;73.80;;;;;;5069221;28;20052;-76
2022/03/29 03:34:31;;;;;;;5.50;2.85;;;8.70;73.80;;;;;;5069298;28;20044;-74
2022/03/29 03:36:58;;;;;;;7.40;3.55;;;8.60;73.80;;;;;;5070079;28;20060;-73
2022/03/29 03:39:25;;;;;;;6.68;2.45;;;8.60;73.90;;;;;;5066640;28;20048;-73
2022/03/29 03:41:54;;;;;;;7.18;2.83;;;8.60;73.90;;;;;;5059653;28;20106;-72
2022/03/29 03:44:22;;;;;;;5.82;2.72;;;8.60;74.00;;;;;;5065109;28;20044;-74
2022/03/29 03:46:50;;;;;;;7.15;3.15;;;8.60;73.80;;;;;;5065601;28;20382;-76
2022/03/29 03:49:17;;;;;;;10.57;3.00;;;8.60;73.90;;;;;;5065088;28;20063;-74
2022/03/29 03:51:43;;;;;;;6.60;2.75;;;8.50;73.90;;;;;;5065494;28;20055;-73
2022/03/29 03:54:11;;;;;;;7.45;3.40;;;8.50;74.00;;;;;;5060341;28;20037;-72
2022/03/29 03:56:38;;;;;;;7.40;3.28;;;8.50;74.10;;;;;;5055503;28;20123;-74
2022/03/29 03:59:06;;;;;;;6.30;2.92;;;8.50;74.00;;;;;;5062829;28;20041;-73
2022/03/29 04:01:35;;;;;;;10.10;4.00;;;8.40;74.00;;;;;;5063539;28;20060;-74
2022/03/29 04:04:02;;;;;;;7.95;3.17;;;8.40;74.10;;;;;;5069202;28;20051;-75
2022/03/29 04:06:29;;;;;;;7.82;3.47;;;8.40;74.10;;;;;;5065543;28;20048;-72
2022/03/29 04:08:58;;;;;;;8.00;3.78;;;8.40;74.20;;;;;;5068327;28;20040;-73
2022/03/29 04:11:26;;;;;;;8.77;3.50;;;8.40;74.10;;;;;;5066392;28;20114;-70
2022/03/29 04:13:53;;;;;;;8.18;3.33;;;8.30;74.30;;;;;;5068686;28;20106;-70
2022/03/29 04:16:22;;;;;;;8.52;3.55;;;8.40;74.30;;;;;;5068597;28;20044;-71
2022/03/29 04:18:49;;;;;;;6.35;3.38;;;8.40;74.20;;;;;;5068011;28;20079;-71
2022/03/29 04:21:15;;;;;;;9.77;3.58;;;8.30;74.20;;;;;;5066614;28;20162;-70
2022/03/29 04:23:43;;;;;;;10.90;3.80;;;8.30;74.20;;;;;;5070611;28;20045;-70
2022/03/29 04:26:10;;;;;;;9.00;3.63;;;8.30;74.30;;;;;;5071159;28;20051;-70
2022/03/29 04:28:37;;;;;;;9.13;4.13;;;8.30;74.30;;;;;;5068213;28;21504;-70
2022/03/29 04:31:04;;;;;;;7.95;3.25;;;8.20;74.40;;;;;;5068770;28;20048;-70
2022/03/29 04:33:32;;;;;;;9.05;3.75;;;8.20;74.50;;;;;;5069740;28;20048;-69
2022/03/29 04:35:59;;;;;;;7.28;3.33;;;8.20;74.50;;;;;;5067281;28;20044;-70
2022/03/29 04:38:27;;;;;;;10.80;4.15;;;8.20;74.50;;;;;;5067725;28;20156;-71
2022/03/29 04:40:54;;;;;;;8.75;3.25;;;8.20;74.60;;;;;;5065852;28;20048;-70
2022/03/29 04:43:21;;;;;;;7.13;3.33;;;8.20;74.60;;;;;;5070038;28;20038;-69
2022/03/29 04:45:49;;;;;;;9.68;4.10;;;8.10;74.60;;;;;;5068906;28;20040;-70
2022/03/29 04:48:15;;;;;;;6.80;3.75;;;8.20;74.70;;;;;;5068447;28;20055;-70
2022/03/29 04:50:44;;;;;;;9.77;4.70;;;8.20;74.70;;;;;;5067213;28;20498;-70
2022/03/29 04:53:13;;;;;;;6.40;3.67;;;8.10;74.70;;;;;;5067915;28;20413;-70
2022/03/29 04:55:40;;;;;;;12.13;3.42;;;8.10;74.70;;;;;;5045545;28;20040;-70
2022/03/29 04:58:07;;;;;;;6.35;2.83;;;8.10;74.80;;;;;;5070119;28;20051;-70
2022/03/29 05:00:33;;;;;;;7.03;3.25;;;8.10;74.80;;;;;;5062785;28;20047;-69
2022/03/29 05:03:01;;;;;;;8.70;3.88;;;8.10;74.80;;;;;;5069930;28;20036;-69
2022/03/29 05:05:30;;;;;;;10.25;4.07;;;8.10;74.90;;;;;;5049847;28;20048;-70
2022/03/29 05:07:58;;;;;;;7.63;3.85;;;8.10;74.90;;;;;;5051485;28;20132;-69
2022/03/29 05:10:25;;;;;;;9.48;3.10;;;8.10;75.00;;;;;;5065183;28;20052;-70
2022/03/29 05:12:52;;;;;;;6.95;3.38;;;8.10;75.00;;;;;;5066565;28;20446;-69
2022/03/29 05:15:21;;;;;;;8.88;3.65;;;8.10;75.00;;;;;;5064321;28;20478;-69
2022/03/29 05:17:48;;;;;;;7.97;3.55;;;8.00;75.00;;;;;;5064250;28;20048;-70
2022/03/29 05:20:16;;;;;;;10.48;4.43;;;8.00;75.10;;;;;;5062847;28;20051;-69
2022/03/29 05:22:44;;;;;;;8.98;3.65;;;8.00;75.20;;;;;;5064677;28;20087;-69
2022/03/29 05:25:13;;;;;;;8.48;4.20;;;8.00;75.20;;;;;;5065215;28;20029;-69
2022/03/29 05:27:40;;;;;;;8.82;3.92;;;8.00;75.30;;;;;;5064216;28;20078;-71
2022/03/29 05:30:08;;;;;;;9.95;4.43;;;7.90;75.40;;;;;;5063209;28;20040;-69
2022/03/29 05:32:35;;;;;;;9.60;3.70;;;7.90;75.50;;;;;;5065026;28;20049;-70
2022/03/29 05:35:02;;;;;;;8.75;4.25;;;7.90;75.60;;;;;;5066619;28;20046;-70
2022/03/29 05:37:29;;;;;;;10.65;4.75;;;8.00;75.60;;;;;;5059192;28;20151;-71
2022/03/29 05:39:56;;;;;;;10.93;4.50;;;8.00;75.50;;;;;;5066624;28;20048;-70
2022/03/29 05:42:25;;;;;;;8.75;3.80;;;8.00;75.50;;;;;;5065546;28;20071;-69
2022/03/29 05:44:52;;;;;;;9.35;4.07;;;8.00;75.60;;;;;;5064765;28;20090;-69
2022/03/29 05:50:04;;;;;;;13.23;4.00;;;8.10;75.50;;;;;;5064302;28;20063;-69
2022/03/29 05:52:30;;;;;;;11.15;4.85;;;8.10;75.30;;;;;;5042223;28;20056;-70
2022/03/29 05:54:58;;;;;;;11.02;5.15;;;8.20;75.30;;;;;;5064513;28;20115;-70
2022/03/29 05:57:26;;;;;;;10.50;5.05;;;8.20;75.30;;;;;;5065435;28;20470;-71
2022/03/29 05:59:53;;;;;;;10.57;5.28;;;8.10;75.50;;;;;;5059879;28;20060;-69
2022/03/29 06:02:20;;;;;;;14.05;5.90;;;8.20;75.50;;;;;;5063108;28;20045;-69
2022/03/29 06:04:47;;;;;;;11.38;5.60;;;8.20;75.60;;;;;;5065492;28;20051;-69
2022/03/29 06:07:15;;;;;;;12.23;5.47;;;8.20;75.60;;;;;;5066904;28;20067;-70
2022/03/29 06:09:42;;;;;;;14.02;6.20;;;8.20;75.60;;;;;;5065851;28;20044;-70
2022/03/29 06:12:09;;;;;;;15.48;5.85;;;8.20;75.70;;;;;;5067212;28;20402;-71
2022/03/29 06:14:37;;;;;;;12.85;5.78;;;8.30;75.80;;;;;;5068566;28;20124;-69
2022/03/29 06:17:07;;;;;;;13.38;4.97;;;8.30;75.90;;;;;;5066164;28;20043;-69
2022/03/29 06:19:36;;;;;;;12.70;5.45;;;8.40;75.90;;;;;;5064175;28;20506;-70
2022/03/29 06:22:28;;;;;;;12.23;5.63;;;8.40;75.70;;;;;;5067156;28;20155;-69
2022/03/29 06:24:55;;;;;;;10.60;5.38;;;8.40;75.80;;;;;;5070488;28;20045;-69
2022/03/29 06:27:22;;;;;;;14.18;6.32;;;8.50;75.80;;;;;;5068819;28;20098;-70
2022/03/29 06:29:54;;;;;;;12.93;5.15;;;8.50;75.80;;;;;;5068689;28;20072;-67
2022/03/29 06:32:22;;;;;;;13.88;5.78;;;8.50;75.80;;;;;;5070895;28;20127;-71
2022/03/29 06:34:50;;;;;;;14.00;6.03;;;8.60;75.80;;;;;;5068105;28;20069;-70
2022/03/29 06:37:17;;;;;;;14.77;6.38;;;8.60;75.70;;;;;;5069854;28;20083;-70
2022/03/29 06:39:44;;;;;;;13.57;5.55;;;8.60;75.80;;;;;;5070286;28;20048;-71
2022/03/29 06:42:11;;;;;;;13.30;5.65;;;8.60;75.70;;;;;;5065182;28;20133;-72
2022/03/29 06:44:39;;;;;;;11.63;5.35;;;8.70;75.80;;;;;;5067668;28;20045;-71
2022/03/29 06:47:07;;;;;;;12.27;5.57;;;8.70;75.70;;;;;;5066714;28;20060;-72
2022/03/29 06:49:34;;;;;;;13.55;5.43;;;8.70;75.70;;;;;;5071396;28;20048;-70
2022/03/29 06:52:01;;;;;;;10.57;4.97;;;8.70;75.60;;;;;;5069145;28;20045;-70
2022/03/29 06:54:30;;;;;;;15.02;5.55;;;8.90;75.60;;;;;;5067801;28;20047;-70
2022/03/29 06:56:58;;;;;;;12.60;5.97;;;8.90;75.50;;;;;;5072534;28;20076;-71
2022/03/29 06:59:25;;;;;;;13.00;5.82;;;8.90;75.60;;;;;;5067485;28;20052;-72
2022/03/29 07:01:51;;;;;;;12.77;5.95;;;9.00;75.50;;;;;;5064752;28;20135;-71
2022/03/29 07:04:20;;;;;;;16.90;6.53;;;8.90;75.50;;;;;;5068368;28;20078;-72
2022/03/29 07:06:47;;;;;;;15.65;6.05;;;9.00;75.50;;;;;;5067543;28;20044;-71
2022/03/29 07:11:59;;;;;;;15.48;7.28;;;9.10;75.40;;;;;;5070129;28;20477;-71
2022/03/29 07:14:26;;;;;;;14.23;5.88;;;9.20;75.30;;;;;;5068587;28;20052;-70
2022/03/29 07:16:53;;;;;;;15.93;7.00;;;9.20;75.20;;;;;;5071063;28;20056;-72
2022/03/29 07:19:23;;;;;;;15.68;6.55;;;9.20;75.20;;;;;;5063797;28;20120;-71
2022/03/29 07:21:50;;;;;;;16.50;6.82;;;9.30;75.40;;;;;;5064382;28;20048;-71
2022/03/29 07:24:17;;;;;;;16.45;6.22;;;9.30;75.50;;;;;;5068495;28;20490;-71
2022/03/29 07:26:44;;;;;;;12.77;7.10;;;9.40;75.50;;;;;;5065487;28;20055;-71
2022/03/29 07:29:11;;;;;;;15.50;6.90;;;9.40;75.70;;;;;;5068435;28;20040;-70
2022/03/29 07:31:38;;;;;;;14.52;6.60;;;9.40;75.60;;;;;;5066950;28;20136;-69
2022/03/29 07:34:05;;;;;;;17.48;6.60;;;9.50;75.30;;;;;;5065524;28;20101;-71
2022/03/29 07:36:34;;;;;;;17.25;7.80;;;9.60;75.30;;;;;;5067042;28;20041;-70
2022/03/29 07:39:01;;;;;;;15.70;6.65;;;9.70;75.10;;;;;;5067309;28;20032;-70
2022/03/29 07:41:28;;;;;;;13.73;7.20;;;9.70;74.90;;;;;;5066933;28;20143;-71
2022/03/29 07:43:55;;;;;;;16.02;7.28;;;9.80;74.70;;;;;;5063373;28;20111;-71
2022/03/29 07:46:22;;;;;;;21.52;8.25;;;9.90;74.30;;;;;;5068987;28;20060;-70
2022/03/29 07:48:50;;;;;;;15.68;7.47;;;10.00;73.90;;;;;;5069743;28;20049;-70
2022/03/29 07:51:17;;;;;;;13.43;7.10;;;10.00;74.00;;;;;;5069557;28;20068;-71
2022/03/29 07:53:45;;;;;;;17.88;6.93;;;10.10;74.30;;;;;;5066081;28;20040;-72
2022/03/29 07:56:13;;;;;;;18.20;7.03;;;10.10;74.10;;;;;;5071743;28;20133;-70
2022/03/29 07:58:40;;;;;;;14.77;7.38;;;10.10;74.10;;;;;;5067704;28;20044;-71
2022/03/29 08:01:07;;;;;;;16.88;7.22;;;10.10;74.10;;;;;;5063763;28;20040;-68
2022/03/29 08:03:34;;;;;;;14.48;7.20;;;10.20;74.00;;;;;;5068596;28;20044;-68
2022/03/29 08:06:02;;;;;;;17.95;8.27;;;10.30;73.80;;;;;;5068689;28;20048;-68
2022/03/29 08:08:30;;;;;;;17.75;8.80;;;10.30;73.80;;;;;;5067657;28;20044;-67
2022/03/29 08:10:59;;;;;;;16.30;8.20;;;10.50;73.80;;;;;;5064827;28;20486;-68
2022/03/29 08:13:27;;;;;;;23.00;8.02;;;10.60;73.60;;;;;;5067280;28;20036;-69
2022/03/29 08:15:56;;;;;;;16.45;7.47;;;10.60;73.50;;;;;;5068587;28;20033;-67
2022/03/29 08:18:24;;;;;;;20.88;8.70;;;10.60;73.50;;;;;;5064962;28;20044;-67
2022/03/29 08:20:51;;;;;;;17.60;7.60;;;10.60;73.70;;;;;;5067937;28;20044;-67
2022/03/29 08:23:18;;;;;;;19.40;7.60;;;10.60;73.70;;;;;;5067412;28;20123;-67
2022/03/29 08:25:45;;;;;;;21.33;9.15;;;10.70;73.70;;;;;;5069653;28;20044;-67
2022/03/29 08:28:14;;;;;;;16.67;7.55;;;10.70;73.60;;;;;;5064968;28;20037;-68
2022/03/29 08:30:42;;;;;;;19.33;8.57;;;10.80;73.50;;;;;;5066171;28;20051;-68
2022/03/29 08:33:10;;;;;;;18.60;8.13;;;10.90;73.20;;;;;;5068333;28;20079;-68
2022/03/29 08:35:38;;;;;;;19.65;8.25;;;11.00;73.10;;;;;;5067347;28;20414;-68
2022/03/29 08:38:06;;;;;;;18.77;7.43;;;11.10;72.90;;;;;;5065711;28;20060;-69
2022/03/29 08:40:33;;;;;;;19.35;8.07;;;11.10;72.90;;;;;;5067877;28;20044;-68
2022/03/29 08:43:00;;;;;;;15.93;7.50;;;11.20;72.30;;;;;;5061805;28;20044;-68
2022/03/29 08:45:30;;;;;;;13.95;7.18;;;11.30;71.50;;;;;;5065760;28;20397;-68
2022/03/29 08:47:59;;;;;;;17.10;6.95;;;11.40;70.80;;;;;;5066517;28;20417;-67
2022/03/29 08:50:28;;;;;;;14.30;6.45;;;11.40;70.10;;;;;;5065109;28;20483;-68
2022/03/29 08:52:56;;;;;;;16.07;6.90;;;11.50;69.80;;;;;;5064964;28;20059;-68
2022/03/29 08:55:24;;;;;;;13.20;6.22;;;11.50;69.60;;;;;;5064422;28;20040;-67
2022/03/29 08:57:55;;;;;;;13.55;6.65;;;11.60;69.40;;;;;;5067555;28;20433;-68
2022/03/29 09:00:23;;;;;;;12.55;5.80;;;11.70;68.80;;;;;;5064305;28;20509;-68
2022/03/29 09:02:52;;;;;;;13.48;6.20;;;11.70;68.70;;;;;;5063408;28;20041;-68
2022/03/29 09:05:23;;;;;;;13.27;6.25;;;11.80;68.50;;;;;;5063820;28;20075;-68
2022/03/29 09:07:53;;;;;;;12.15;5.90;;;11.90;68.40;;;;;;5065000;28;20040;-69
2022/03/29 09:10:22;;;;;;;11.70;5.65;;;11.90;68.00;;;;;;5065618;28;20047;-70
2022/03/29 09:12:49;;;;;;;15.40;5.82;;;12.00;68.20;;;;;;5067460;28;20043;-68
2022/03/29 09:15:17;;;;;;;12.43;5.75;;;12.10;67.90;;;;;;5065803;28;20051;-68
2022/03/29 09:17:46;;;;;;;10.88;5.72;;;12.10;67.30;;;;;;5067579;28;20040;-68
2022/03/29 09:20:16;;;;;;;13.43;5.57;;;12.20;67.50;;;;;;5067705;28;20057;-69
2022/03/29 09:22:46;;;;;;;12.45;5.32;;;12.20;66.60;;;;;;5066596;28;20044;-69
2022/03/29 09:25:17;;;;;;;15.40;5.80;;;12.30;66.70;;;;;;5065262;28;20453;-69
2022/03/29 09:28:06;;;;;;;15.32;6.07;;;12.40;65.80;;;;;;5065191;28;20040;-68
2022/03/29 09:30:38;;;;;;;12.52;5.70;;;12.40;65.50;;;;;;5064739;28;20044;-68
2022/03/29 09:33:08;;;;;;;13.90;6.38;;;12.40;65.60;;;;;;5067377;28;20044;-69
2022/03/29 09:35:53;;;;;;;11.88;6.32;;;12.50;65.70;;;;;;5065560;28;20052;-68
2022/03/29 09:38:26;;;;;;;14.20;5.82;;;12.50;65.40;;;;;;5064370;28;20045;-68
2022/03/29 09:40:55;;;;;;;15.57;6.25;;;12.60;65.00;;;;;;5063289;28;20113;-69
2022/03/29 09:44:00;;;;;;;12.18;5.70;;;12.70;65.20;;;;;;5042075;28;20059;-67
2022/03/29 09:46:27;;;;;;;9.95;5.00;;;12.70;64.60;;;;;;5065052;28;20160;-68
2022/03/29 09:49:00;;;;;;;11.02;4.93;;;12.70;64.00;;;;;;5061718;28;20048;-68
2022/03/29 09:51:29;;;;;;;11.00;4.97;;;12.80;64.30;;;;;;5065438;28;20079;-69
2022/03/29 09:53:58;;;;;;;9.18;4.93;;;12.80;64.20;;;;;;5064650;28;20048;-69
2022/03/29 09:56:28;;;;;;;15.93;5.30;;;12.90;64.30;;;;;;5071703;28;20055;-68
2022/03/29 09:59:06;;;;;;;8.07;4.25;;;12.90;63.20;;;;;;5070112;28;20041;-68
2022/03/29 10:01:46;;;;;;;7.65;4.07;;;13.10;63.40;;;;;;5067713;28;20133;-68
2022/03/29 10:04:15;;;;;;;10.13;3.78;;;13.10;63.10;;;;;;5069699;28;20044;-68
2022/03/29 10:06:44;;;;;;;8.30;3.80;;;13.10;63.30;;;;;;5066326;28;20405;-68
2022/03/29 10:09:29;;;;;;;8.52;3.88;;;13.20;62.80;;;;;;5069679;28;20049;-69
2022/03/29 10:11:58;;;;;;;10.02;4.05;;;13.20;61.90;;;;;;5070492;28;20067;-68
2022/03/29 10:14:26;;;;;;;9.02;4.15;;;13.30;61.80;;;;;;5068615;28;20044;-68
2022/03/29 10:16:54;;;;;;;10.88;3.70;;;13.30;62.30;;;;;;5070369;28;20040;-68
2022/03/29 10:19:22;;;;;;;7.82;3.25;;;13.40;61.10;;;;;;5067380;28;20037;-69
2022/03/29 10:21:53;;;;;;;6.68;3.30;;;13.40;60.00;;;;;;5045328;28;20152;-70
2022/03/29 10:24:21;;;;;;;7.22;3.33;;;13.50;59.80;;;;;;5071295;28;20032;-69
2022/03/29 10:26:50;;;;;;;6.85;3.15;;;13.50;59.80;;;;;;5068073;28;20044;-70
2022/03/29 10:29:17;;;;;;;10.00;3.78;;;13.60;59.20;;;;;;5067569;28;20393;-69
2022/03/29 10:31:52;;;;;;;8.68;3.15;;;13.60;59.20;;;;;;5069097;28;20060;-69
2022/03/29 10:34:22;;;;;;;10.25;3.20;;;13.60;59.70;;;;;;5067068;28;20074;-70
2022/03/29 10:37:18;;;;;;;6.82;3.08;;;13.70;58.80;;;;;;5071048;28;20425;-69
2022/03/29 10:39:53;;;;;;;5.45;2.67;;;13.70;59.00;;;;;;5065867;28;20052;-68
2022/03/29 10:42:32;;;;;;;7.22;3.50;;;13.70;59.20;;;;;;5068594;28;20113;-69
2022/03/29 10:45:05;;;;;;;7.32;3.08;;;13.70;58.60;;;;;;5068584;28;20040;-69
2022/03/29 10:47:33;;;;;;;7.57;3.10;;;13.80;59.00;;;;;;5065945;28;20072;-69
2022/03/29 10:50:02;;;;;;;8.38;2.83;;;13.80;58.80;;;;;;5065756;28;20512;-69
2022/03/29 10:52:37;;;;;;;8.23;3.42;;;13.90;59.40;;;;;;5068737;28;20051;-69
2022/03/29 10:55:31;;;;;;;6.93;3.00;;;13.90;58.50;;;;;;5068285;28;20052;-68
2022/03/29 10:58:20;;;;;;;6.13;2.80;;;14.00;58.80;;;;;;5067378;28;20132;-68
2022/03/29 11:00:48;;;;;;;7.15;2.67;;;14.00;58.30;;;;;;5058699;28;20052;-68
2022/03/29 11:03:21;;;;;;;7.88;2.67;;;14.00;57.60;;;;;;5071504;28;20064;-69
2022/03/29 11:06:10;;;;;;;6.28;2.33;;;14.10;57.80;;;;;;5066943;28;20102;-69
2022/03/29 11:08:40;;;;;;;7.68;3.58;;;14.10;57.30;;;;;;5067951;28;20044;-68
2022/03/29 11:11:09;;;;;;;6.70;3.45;;;14.10;56.70;;;;;;5069138;28;20044;-68
2022/03/29 11:13:37;;;;;;;6.53;3.03;;;14.20;56.80;;;;;;5069259;28;20119;-69
2022/03/29 11:16:30;;;;;;;7.38;2.70;;;14.20;56.90;;;;;;5067052;28;20118;-68
2022/03/29 11:18:58;;;;;;;4.00;2.58;;;14.20;56.50;;;;;;5073133;28;20040;-69
2022/03/29 11:21:30;;;;;;;6.90;2.97;;;14.30;56.30;;;;;;5066785;28;20033;-69
2022/03/29 11:24:01;;;;;;;5.28;2.60;;;14.30;56.30;;;;;;5067921;28;20041;-69
2022/03/29 11:26:29;;;;;;;7.03;2.65;;;14.40;56.80;;;;;;5068722;28;20036;-68
2022/03/29 11:28:57;;;;;;;11.35;2.72;;;14.40;56.20;;;;;;5070306;28;20547;-68
2022/03/29 11:31:32;;;;;;;6.38;2.47;;;14.40;55.60;;;;;;5068038;28;20048;-68
2022/03/29 11:33:59;;;;;;;5.55;2.20;;;14.40;55.30;;;;;;5050945;28;20061;-69
2022/03/29 11:36:26;;;;;;;9.15;2.25;;;14.50;55.60;;;;;;5067541;28;20044;-68
2022/03/29 11:38:53;;;;;;;4.32;1.63;;;14.60;55.30;;;;;;5069724;28;20102;-68
2022/03/29 11:41:24;;;;;;;4.97;1.77;;;14.60;55.50;;;;;;5066665;28;20127;-68
2022/03/29 11:43:55;;;;;;;;;;;14.60;55.00;;;;;;5064096;28;20045;-68
2022/03/29 11:46:22;;;;;;;4.32;1.60;;;14.60;54.40;;;;;;5069840;28;19955;-68
2022/03/29 11:48:50;;;;;;;5.43;1.80;;;14.70;54.60;;;;;;5048084;28;20137;-69
2022/03/29 11:51:18;;;;;;;4.03;1.75;;;14.70;54.20;;;;;;5070218;28;20051;-68
2022/03/29 11:53:45;;;;;;;5.32;1.80;;;14.70;54.70;;;;;;5067754;28;20048;-69
2022/03/29 11:56:14;;;;;;;5.43;1.90;;;14.80;54.70;;;;;;5060233;28;20044;-69
2022/03/29 11:58:43;;;;;;;3.72;1.63;;;14.90;54.90;;;;;;5067222;28;20094;-70
2022/03/29 12:01:12;;;;;;;5.13;1.65;;;14.90;55.10;;;;;;5059858;28;20094;-69
2022/03/29 12:03:42;;;;;;;3.78;1.58;;;14.90;54.60;;;;;;5068513;28;20529;-69
2022/03/29 12:06:13;;;;;;;3.87;1.47;;;14.90;54.10;;;;;;5068130;28;20517;-68
2022/03/29 12:08:48;;;;;;;3.45;1.35;;;14.90;54.20;;;;;;5067573;28;20449;-70
2022/03/29 12:11:16;;;;;;;3.17;1.25;;;15.00;53.60;;;;;;5068691;28;20040;-69
2022/03/29 12:13:46;;;;;;;5.57;1.45;;;15.00;53.00;;;;;;5068800;28;20409;-68
2022/03/29 12:16:24;;;;;;;2.55;1.20;;;15.00;52.80;;;;;;5067698;28;20060;-70
2022/03/29 12:18:52;;;;;;;2.90;1.23;;;15.10;53.30;;;;;;5063626;28;20365;-69
2022/03/29 12:21:23;;;;;;;3.80;1.40;;;15.10;53.20;;;;;;5066617;28;20428;-68
2022/03/29 12:23:58;;;;;;;4.95;1.17;;;15.10;52.50;;;;;;5064672;28;20119;-69
2022/03/29 12:26:26;;;;;;;4.75;1.60;;;15.10;52.80;;;;;;5066076;28;20047;-69
2022/03/29 12:28:54;;;;;;;3.05;1.05;;;15.10;52.40;;;;;;5069833;28;20214;-69
2022/03/29 12:31:24;;;;;;;2.83;1.10;;;15.10;51.90;;;;;;5067236;28;20082;-69
2022/03/29 12:33:52;;;;;;;2.58;1.25;;;15.20;51.90;;;;;;5062814;28;20439;-68
2022/03/29 12:36:19;;;;;;;3.47;1.23;;;15.20;51.90;;;;;;5067746;28;20041;-69
2022/03/29 12:38:49;;;;;;;2.63;1.00;;;15.20;52.00;;;;;;5069410;28;20044;-69
2022/03/29 12:41:30;;;;;;;;;;;15.20;52.50;;;;;;5071731;28;20048;-68
2022/03/29 12:43:59;;;;;;;2.72;1.15;;;15.20;51.40;;;;;;5069557;28;20324;-69
2022/03/29 12:46:26;;;;;;;3.45;1.15;;;15.30;50.90;;;;;;5070066;28;20040;-68
2022/03/29 12:48:55;;;;;;;2.67;1.13;;;15.30;50.40;;;;;;5045895;28;20059;-69
2022/03/29 12:51:27;;;;;;;2.45;1.00;;;15.30;50.80;;;;;;5067215;28;20123;-69
2022/03/29 12:53:59;;;;;;;3.65;1.08;;;15.40;51.30;;;;;;5067348;28;20052;-69
2022/03/29 12:56:37;;;;;;;4.45;1.23;;;15.40;51.00;;;;;;5051442;28;20401;-69
2022/03/29 12:59:27;;;;;;;2.78;1.10;;;15.40;51.10;;;;;;5068431;28;20048;-68
2022/03/29 13:02:00;;;;;;;3.70;1.17;;;15.40;51.20;;;;;;5067174;28;20064;-69
2022/03/29 13:04:39;;;;;;;1.83;0.95;;;15.40;50.20;;;;;;5066868;28;20479;-69
2022/03/29 13:07:07;;;;;;;5.55;1.38;;;15.40;50.80;;;;;;5067831;28;20154;-69